Time;durP1;ratioP1;P1;durP2;ratioP2;P2;SDS_P1;SDS_P2;PMS_P1;PMS_P2;Temp;Humidity;BMP_temperature;BMP_pressure;BME280_temperature;BME280_humidity;BME280_pressure;Samples;Min_cycle;Max_cycle;Signal;HPM_P1;HPM_P2
2023/08/17 00:02:14;;;;;;;6.68;2.92;;;;;;;19.20;100.00;101589.63;5057218;28;20051;-80
2023/08/17 00:04:39;;;;;;;7.68;2.78;;;;;;;19.22;100.00;101588.44;5070085;28;20034;-80
2023/08/17 00:07:05;;;;;;;3.45;2.90;;;;;;;19.06;100.00;101589.16;5071749;28;20037;-80
2023/08/17 00:09:31;;;;;;;8.32;2.92;;;;;;;19.09;100.00;101583.28;5087452;28;20486;-80
2023/08/17 00:11:56;;;;;;;6.72;3.03;;;;;;;19.07;100.00;101598.34;5084014;28;20138;-81
2023/08/17 00:14:22;;;;;;;7.85;2.88;;;;;;;19.09;100.00;101596.31;5067443;28;20115;-81
2023/08/17 00:16:49;;;;;;;8.05;2.97;;;;;;;19.10;100.00;101590.59;5083605;28;20028;-81
2023/08/17 00:19:15;;;;;;;5.78;3.08;;;;;;;19.13;100.00;101597.72;5085176;28;20123;-81
2023/08/17 00:21:41;;;;;;;13.10;3.35;;;;;;;18.92;100.00;101603.59;5062375;28;20131;-80
2023/08/17 00:24:06;;;;;;;8.35;3.95;;;;;;;18.88;100.00;101594.72;5070054;28;20032;-80
2023/08/17 00:26:32;;;;;;;8.85;3.90;;;;;;;18.80;100.00;101591.81;5086605;28;20115;-80
2023/08/17 00:28:58;;;;;;;17.70;4.05;;;;;;;18.78;100.00;101596.66;5083955;28;20075;-88
2023/08/17 00:31:23;;;;;;;10.27;3.42;;;;;;;18.74;100.00;101606.31;5085614;28;20024;-88
2023/08/17 00:33:49;;;;;;;8.55;3.50;;;;;;;18.66;100.00;101597.91;5057962;28;20036;-87
2023/08/17 00:36:14;;;;;;;14.80;3.65;;;;;;;18.67;100.00;101599.66;5071059;28;20100;-87
2023/08/17 00:38:40;;;;;;;11.10;3.47;;;;;;;18.72;100.00;101600.06;5080225;28;20090;-87
2023/08/17 00:41:06;;;;;;;8.60;3.58;;;;;;;18.76;100.00;101589.50;5083700;28;20067;-87
2023/08/17 00:43:31;;;;;;;11.57;3.30;;;;;;;18.68;100.00;101595.88;5085657;28;20374;-87
2023/08/17 00:45:58;;;;;;;11.07;3.83;;;;;;;18.57;100.00;101598.84;5054969;28;20078;-87
2023/08/17 00:48:24;;;;;;;8.18;3.50;;;;;;;18.63;100.00;101592.69;5085320;28;20555;-88
2023/08/17 00:50:52;;;;;;;10.05;3.70;;;;;;;18.58;100.00;101589.47;5084768;28;20025;-87
2023/08/17 00:53:19;;;;;;;5.85;3.45;;;;;;;18.55;100.00;101586.00;5069640;28;20505;-86
2023/08/17 00:55:44;;;;;;;6.32;3.25;;;;;;;18.46;100.00;101589.72;5089906;28;20024;-87
2023/08/17 00:58:10;;;;;;;8.93;3.25;;;;;;;18.48;100.00;101581.22;5070353;28;20946;-87
2023/08/17 01:00:36;;;;;;;9.27;3.28;;;;;;;18.40;100.00;101583.91;5085038;28;20090;-88
2023/08/17 01:03:01;;;;;;;5.68;3.38;;;;;;;18.40;100.00;101576.47;5088324;28;20099;-87
2023/08/17 01:05:30;;;;;;;11.88;3.42;;;;;;;18.40;100.00;101579.25;5072625;28;20082;-87
2023/08/17 01:07:56;;;;;;;8.43;3.15;;;;;;;18.27;100.00;101582.38;5072509;28;20032;-87
2023/08/17 01:10:22;;;;;;;5.28;2.67;;;;;;;18.19;100.00;101585.91;5088591;28;20454;-87
2023/08/17 01:13:00;;;;;;;4.13;2.92;;;;;;;18.22;100.00;101592.16;5086710;28;20115;-87
2023/08/17 01:15:40;;;;;;;6.57;3.20;;;;;;;18.12;100.00;101592.25;5086244;28;20032;-87
2023/08/17 01:18:25;;;;;;;8.80;3.10;;;;;;;18.13;100.00;101588.44;5090547;28;20041;-87
2023/08/17 01:20:52;;;;;;;8.05;3.20;;;;;;;18.11;100.00;101593.25;5088595;28;20401;-87
2023/08/17 01:23:18;;;;;;;6.15;3.10;;;;;;;18.10;100.00;101597.94;5073515;28;20106;-88
2023/08/17 01:25:44;;;;;;;9.73;3.30;;;;;;;18.07;100.00;101584.38;5084750;28;20211;-87
2023/08/17 01:28:09;;;;;;;7.47;2.78;;;;;;;18.09;100.00;101587.00;5071251;28;20089;-88
2023/08/17 01:30:55;;;;;;;8.15;3.15;;;;;;;17.99;100.00;101590.69;5057574;28;20085;-88
2023/08/17 01:33:27;;;;;;;10.35;3.00;;;;;;;17.97;100.00;101587.19;5088721;28;20084;-88
2023/08/17 01:35:59;;;;;;;10.98;3.53;;;;;;;17.96;100.00;101584.56;5085910;28;20375;-87
2023/08/17 01:38:29;;;;;;;6.25;3.38;;;;;;;18.00;100.00;101594.31;5088374;28;20470;-81
2023/08/17 01:40:55;;;;;;;8.25;3.30;;;;;;;17.94;100.00;101595.81;5098144;28;20028;-87
2023/08/17 01:43:20;;;;;;;5.85;3.00;;;;;;;18.02;100.00;101594.16;5071288;28;20036;-86
2023/08/17 01:45:46;;;;;;;9.23;2.80;;;;;;;17.95;100.00;101593.91;5093565;28;20392;-87
2023/08/17 01:48:12;;;;;;;7.00;3.33;;;;;;;17.94;100.00;101590.28;5071242;28;20036;-88
2023/08/17 01:50:37;;;;;;;8.88;2.95;;;;;;;18.00;100.00;101603.53;5086883;28;20080;-87
2023/08/17 01:53:03;;;;;;;8.52;3.33;;;;;;;17.94;100.00;101604.13;5071025;28;20119;-87
2023/08/17 01:55:28;;;;;;;9.18;3.00;;;;;;;17.95;100.00;101602.22;5067471;28;20028;-88
2023/08/17 01:57:54;;;;;;;8.93;3.10;;;;;;;18.05;100.00;101607.72;5084371;28;20391;-87
2023/08/17 02:00:19;;;;;;;5.22;3.05;;;;;;;17.99;100.00;101592.59;5056988;28;20047;-87
2023/08/17 02:02:45;;;;;;;6.90;3.17;;;;;;;17.90;100.00;101594.34;5066702;28;20027;-88
2023/08/17 02:05:10;;;;;;;9.10;3.00;;;;;;;17.96;100.00;101596.53;5066185;28;20032;-87
2023/08/17 02:07:36;;;;;;;12.75;3.60;;;;;;;17.94;100.00;101601.34;5070647;28;20028;-87
2023/08/17 02:10:01;;;;;;;8.30;3.58;;;;;;;17.95;100.00;101596.69;5066098;28;20509;-87
2023/08/17 02:12:27;;;;;;;9.68;3.38;;;;;;;17.87;100.00;101599.28;5089905;28;20499;-87
2023/08/17 02:14:53;;;;;;;4.95;2.80;;;;;;;18.00;100.00;101610.94;5080451;28;20032;-87
2023/08/17 02:17:19;;;;;;;11.02;3.15;;;;;;;17.91;100.00;101609.09;5087608;28;20025;-87
2023/08/17 02:19:44;;;;;;;7.40;3.20;;;;;;;17.97;100.00;101608.47;5053116;28;20024;-87
2023/08/17 02:22:11;;;;;;;9.30;3.38;;;;;;;17.97;100.00;101609.38;5080835;28;20062;-88
2023/08/17 02:24:36;;;;;;;7.95;3.08;;;;;;;17.93;100.00;101601.50;5086688;28;20386;-87
2023/08/17 02:27:02;;;;;;;6.68;3.33;;;;;;;17.93;100.00;101602.38;5083530;28;20083;-87
2023/08/17 02:29:29;;;;;;;6.18;2.92;;;;;;;17.95;100.00;101605.00;5065859;28;20040;-87
2023/08/17 02:31:55;;;;;;;5.82;2.83;;;;;;;17.95;100.00;101602.22;5053548;28;20063;-87
2023/08/17 02:34:21;;;;;;;5.57;2.88;;;;;;;18.04;100.00;101606.84;5083492;28;20406;-86
2023/08/17 02:36:46;;;;;;;11.05;3.35;;;;;;;17.82;100.00;101597.88;5080691;28;20028;-86
2023/08/17 02:39:12;;;;;;;13.73;3.78;;;;;;;17.82;100.00;101600.63;5047572;28;20524;-86
2023/08/17 02:41:37;;;;;;;7.85;3.15;;;;;;;17.86;100.00;101594.81;5080216;28;20454;-87
2023/08/17 02:44:03;;;;;;;8.15;4.18;;;;;;;17.90;100.00;101590.72;5067992;28;20032;-86
2023/08/17 02:46:28;;;;;;;5.70;3.25;;;;;;;17.76;100.00;101583.75;5067573;28;20032;-88
2023/08/17 02:48:54;;;;;;;9.55;3.50;;;;;;;17.78;100.00;101573.38;5051493;28;20546;-80
2023/08/17 02:51:19;;;;;;;8.88;3.05;;;;;;;17.85;100.00;101580.06;5066057;28;20032;-80
2023/08/17 02:53:46;;;;;;;9.15;3.13;;;;;;;17.67;100.00;101579.09;5066637;28;20031;-80
2023/08/17 02:56:12;;;;;;;5.32;3.45;;;;;;;17.67;100.00;101571.66;5073788;28;20482;-80
2023/08/17 02:58:42;;;;;;;9.70;3.83;;;;;;;17.74;100.00;101574.69;5048339;28;20039;-80
2023/08/17 03:01:08;;;;;;;16.90;3.63;;;;;;;17.68;100.00;101576.19;5082405;28;20139;-80
2023/08/17 03:03:33;;;;;;;7.97;3.22;;;;;;;17.71;100.00;101572.22;5069162;28;20039;-80
2023/08/17 03:05:59;;;;;;;14.57;3.53;;;;;;;17.61;100.00;101563.94;5086893;28;20036;-79
2023/08/17 03:08:24;;;;;;;8.38;3.20;;;;;;;17.61;100.00;101564.84;5051408;28;20032;-80
2023/08/17 03:10:50;;;;;;;11.18;3.55;;;;;;;17.60;100.00;101573.28;5053350;28;20631;-80
2023/08/17 03:13:15;;;;;;;13.35;3.35;;;;;;;17.53;100.00;101569.34;5051840;28;20485;-80
2023/08/17 03:15:41;;;;;;;9.50;3.47;;;;;;;17.57;100.00;101568.91;5065628;28;20028;-79
2023/08/17 03:18:07;;;;;;;10.70;3.08;;;;;;;17.58;100.00;101572.56;5068423;28;20032;-79
2023/08/17 03:20:32;;;;;;;8.82;3.38;;;;;;;17.61;100.00;101567.59;5087100;28;20429;-79
2023/08/17 03:22:58;;;;;;;15.32;3.58;;;;;;;17.55;100.00;101570.97;5079831;28;20035;-80
2023/08/17 03:25:24;;;;;;;9.20;3.75;;;;;;;17.55;100.00;101559.03;5069522;28;20074;-80
2023/08/17 03:27:50;;;;;;;8.85;3.22;;;;;;;17.55;100.00;101561.78;5086539;28;20031;-80
2023/08/17 03:30:15;;;;;;;8.40;3.20;;;;;;;17.60;100.00;101568.63;5083668;28;20486;-80
2023/08/17 03:32:42;;;;;;;13.10;3.15;;;;;;;17.52;100.00;101567.63;5086268;28;20970;-80
2023/08/17 03:35:08;;;;;;;15.85;3.60;;;;;;;17.57;100.00;101562.50;5069896;28;20081;-80
2023/08/17 03:37:34;;;;;;;9.75;3.13;;;;;;;17.53;100.00;101556.41;5082117;28;20036;-80
2023/08/17 03:40:03;;;;;;;8.95;3.05;;;;;;;17.47;100.00;101545.91;5069554;28;20486;-80
2023/08/17 03:42:29;;;;;;;11.27;3.20;;;;;;;17.51;100.00;101554.78;5083252;28;20036;-80
2023/08/17 03:44:54;;;;;;;14.65;3.60;;;;;;;17.51;100.00;101550.16;5086408;28;20032;-80
2023/08/17 03:47:20;;;;;;;8.15;3.08;;;;;;;17.36;100.00;101548.84;5065417;28;20489;-80
2023/08/17 03:49:46;;;;;;;12.90;3.63;;;;;;;17.31;100.00;101552.06;5068544;28;20482;-80
2023/08/17 03:52:11;;;;;;;9.98;3.60;;;;;;;17.39;100.00;101554.97;5066236;28;20028;-80
2023/08/17 03:54:37;;;;;;;14.25;3.42;;;;;;;17.43;100.00;101564.72;5052052;28;20024;-79
2023/08/17 03:57:02;;;;;;;8.32;3.08;;;;;;;17.36;100.00;101557.16;5066999;28;20040;-80
2023/08/17 03:59:28;;;;;;;10.93;3.95;;;;;;;17.37;100.00;101570.00;5058228;28;20081;-87
2023/08/17 04:01:53;;;;;;;6.28;3.80;;;;;;;17.35;100.00;101572.00;5067557;28;20055;-87
2023/08/17 04:04:19;;;;;;;8.30;3.65;;;;;;;17.44;100.00;101577.53;5079887;28;20039;-88
2023/08/17 04:06:44;;;;;;;12.55;3.58;;;;;;;17.50;100.00;101581.63;5056455;28;20028;-89
2023/08/17 04:09:10;;;;;;;13.48;3.50;;;;;;;17.43;100.00;101578.56;5088897;28;20028;-86
2023/08/17 04:11:39;;;;;;;5.95;3.42;;;;;;;17.44;100.00;101580.31;5064255;28;20090;-88
2023/08/17 04:14:05;;;;;;;18.42;3.78;;;;;;;17.41;100.00;101575.09;5089897;28;20024;-88
2023/08/17 04:16:37;;;;;;;11.25;4.57;;;;;;;17.34;100.00;101576.69;5089438;28;20470;-89
2023/08/17 04:19:03;;;;;;;15.60;4.05;;;;;;;17.35;100.00;101583.09;5094545;28;20131;-89
2023/08/17 04:21:28;;;;;;;11.50;3.53;;;;;;;17.38;100.00;101577.25;5076456;28;20047;-89
2023/08/17 04:23:54;;;;;;;8.23;3.67;;;;;;;17.31;100.00;101576.97;5085913;28;20060;-87
2023/08/17 04:26:20;;;;;;;12.43;3.60;;;;;;;17.30;100.00;101586.31;5089901;28;20072;-88
2023/08/17 04:28:45;;;;;;;12.20;4.10;;;;;;;17.35;100.00;101589.53;5068175;28;20173;-89
2023/08/17 04:31:11;;;;;;;8.98;3.78;;;;;;;17.35;100.00;101588.63;5089812;28;20111;-88
2023/08/17 04:33:37;;;;;;;9.00;3.65;;;;;;;17.39;100.00;101587.31;5070359;28;20036;-87
2023/08/17 04:36:02;;;;;;;8.88;3.85;;;;;;;17.33;100.00;101586.03;5071797;28;20103;-85
2023/08/17 04:38:28;;;;;;;8.68;3.30;;;;;;;17.27;100.00;101593.00;5073997;28;20051;-88
2023/08/17 04:40:55;;;;;;;15.50;4.25;;;;;;;17.18;100.00;101601.31;5068138;28;20028;-87
2023/08/17 04:43:20;;;;;;;11.05;3.72;;;;;;;17.19;100.00;101595.66;5084512;28;20093;-87
2023/08/17 04:45:47;;;;;;;5.95;3.15;;;;;;;17.21;100.00;101599.13;5055240;28;20482;-86
2023/08/17 04:48:13;;;;;;;17.02;4.32;;;;;;;17.18;100.00;101593.88;5068459;28;20048;-86
2023/08/17 04:50:39;;;;;;;7.72;3.47;;;;;;;17.22;100.00;101589.81;5085451;28;20027;-88
2023/08/17 04:53:05;;;;;;;16.88;3.70;;;;;;;17.12;100.00;101597.25;5084640;28;20033;-89
2023/08/17 04:55:32;;;;;;;12.05;3.45;;;;;;;17.06;100.00;101600.59;5081267;28;20032;-85
2023/08/17 04:57:57;;;;;;;7.85;3.55;;;;;;;17.15;100.00;101609.91;5084556;28;20481;-84
2023/08/17 05:00:30;;;;;;;11.95;3.47;;;;;;;17.03;100.00;101603.66;5082968;28;20040;-84
2023/08/17 05:02:55;;;;;;;11.10;3.78;;;;;;;17.06;100.00;101603.38;5087356;28;20028;-84
2023/08/17 05:05:21;;;;;;;13.38;4.45;;;;;;;17.06;100.00;101604.25;5055815;28;20029;-85
2023/08/17 05:07:47;;;;;;;14.57;4.85;;;;;;;17.03;100.00;101606.44;5053458;28;20028;-84
2023/08/17 05:10:16;;;;;;;10.10;5.03;;;;;;;16.99;100.00;101603.09;5087765;28;20115;-82
2023/08/17 05:12:42;;;;;;;16.60;6.05;;;;;;;16.89;100.00;101604.97;5082551;28;20055;-82
2023/08/17 05:15:07;;;;;;;13.23;6.10;;;;;;;16.93;100.00;101602.78;5070926;28;20122;-82
2023/08/17 05:17:34;;;;;;;20.15;6.80;;;;;;;16.86;100.00;101600.59;5080731;28;20096;-83
2023/08/17 05:19:59;;;;;;;14.93;6.38;;;;;;;16.86;100.00;101603.38;5086157;28;20406;-80
2023/08/17 05:22:28;;;;;;;15.50;6.53;;;;;;;16.84;100.00;101604.47;5053360;28;20489;-80
2023/08/17 05:24:55;;;;;;;13.27;6.63;;;;;;;16.92;100.00;101595.50;5077771;28;20032;-81
2023/08/17 05:27:21;;;;;;;18.65;7.22;;;;;;;16.93;100.00;101602.78;5053098;28;20024;-81
2023/08/17 05:29:46;;;;;;;18.60;6.20;;;;;;;16.88;100.00;101598.53;5078009;28;20040;-80
2023/08/17 05:32:13;;;;;;;13.50;6.25;;;;;;;17.04;100.00;101597.13;5088176;28;20032;-80
2023/08/17 05:34:42;;;;;;;12.05;5.90;;;;;;;17.08;100.00;101601.31;5079751;28;20178;-80
2023/08/17 05:37:11;;;;;;;9.43;5.97;;;;;;;17.16;100.00;101601.47;5066566;28;20084;-79
2023/08/17 05:39:36;;;;;;;12.38;5.90;;;;;;;17.27;100.00;101600.47;5085389;28;20090;-79
2023/08/17 05:42:01;;;;;;;17.00;5.95;;;;;;;17.23;100.00;101601.75;5051841;28;20024;-80
2023/08/17 05:44:27;;;;;;;16.65;6.07;;;;;;;17.22;100.00;101605.56;5055286;28;20032;-80
2023/08/17 05:46:52;;;;;;;10.43;4.80;;;;;;;17.25;100.00;101600.59;5051804;28;20521;-79
2023/08/17 05:49:19;;;;;;;14.05;4.82;;;;;;;17.28;100.00;101604.94;5052062;28;20028;-80
2023/08/17 05:51:46;;;;;;;16.38;5.63;;;;;;;17.35;100.00;101605.22;5081561;28;20055;-80
2023/08/17 05:54:16;;;;;;;12.52;5.03;;;;;;;17.42;100.00;101614.72;5080798;28;20070;-80
2023/08/17 05:56:46;;;;;;;16.73;4.97;;;;;;;17.38;100.00;101616.91;5062248;28;20154;-80
2023/08/17 05:59:12;;;;;;;17.73;5.78;;;;;;;17.42;100.00;101607.28;5071346;28;20093;-80
2023/08/17 06:01:40;;;;;;;9.48;6.18;;;;;;;17.41;100.00;101616.63;5085051;28;20585;-80
2023/08/17 06:04:06;;;;;;;13.40;6.30;;;;;;;17.52;100.00;101623.88;5065390;28;20058;-80
2023/08/17 06:06:32;;;;;;;10.55;6.00;;;;;;;17.63;100.00;101609.00;5078359;28;20070;-82
2023/08/17 06:08:57;;;;;;;11.32;5.57;;;;;;;17.66;100.00;101613.34;5075610;28;20059;-80
2023/08/17 06:11:23;;;;;;;21.13;5.82;;;;;;;17.63;100.00;101609.84;5079004;28;20028;-82
2023/08/17 06:13:49;;;;;;;14.20;5.38;;;;;;;17.73;100.00;101615.38;5082108;28;20412;-84
2023/08/17 06:16:15;;;;;;;9.43;5.28;;;;;;;17.77;100.00;101610.41;5081325;28;20027;-83
2023/08/17 06:18:42;;;;;;;9.30;4.90;;;;;;;17.80;100.00;101613.75;5068302;28;20031;-87
2023/08/17 06:21:08;;;;;;;14.60;5.47;;;;;;;17.73;100.00;101611.75;5071242;28;20052;-85
2023/08/17 06:23:36;;;;;;;10.25;5.18;;;;;;;18.00;100.00;101616.47;5080093;28;20146;-89
2023/08/17 06:26:22;;;;;;;13.27;5.18;;;;;;;17.96;100.00;101618.69;5087195;28;20376;-87
2023/08/17 06:28:47;;;;;;;13.25;5.93;;;;;;;17.93;100.00;101609.81;5087448;28;20068;-85
2023/08/17 06:31:16;;;;;;;17.85;5.43;;;;;;;17.98;100.00;101613.88;5092789;28;20047;-86
2023/08/17 06:33:43;;;;;;;14.95;5.35;;;;;;;18.13;100.00;101613.38;5074130;28;20096;-86
2023/08/17 06:36:13;;;;;;;15.52;5.35;;;;;;;18.13;100.00;101618.91;5072794;28;20032;-87
2023/08/17 06:38:40;;;;;;;14.60;5.72;;;;;;;18.13;100.00;101607.84;5087944;28;20028;-86
2023/08/17 06:41:05;;;;;;;14.15;5.30;;;;;;;18.27;100.00;101615.66;5070540;28;20024;-86
2023/08/17 06:43:33;;;;;;;9.10;5.28;;;;;;;18.30;100.00;101611.69;5088019;28;20050;-86
2023/08/17 06:46:00;;;;;;;12.90;5.25;;;;;;;18.42;100.00;101616.00;5069203;28;20032;-85
2023/08/17 06:48:26;;;;;;;17.98;4.97;;;;;;;18.40;100.00;101618.06;5067934;28;20028;-85
2023/08/17 06:50:51;;;;;;;12.27;5.88;;;;;;;18.40;100.00;101631.03;5086962;28;20390;-87
2023/08/17 06:53:18;;;;;;;15.63;5.97;;;;;;;18.40;100.00;101620.84;5052249;28;20132;-86
2023/08/17 06:55:44;;;;;;;13.73;5.68;;;;;;;18.13;100.00;101616.16;5053567;28;20127;-86
2023/08/17 06:58:09;;;;;;;9.80;5.13;;;;;;;18.29;100.00;101621.03;5081350;28;20028;-87
2023/08/17 07:00:35;;;;;;;11.70;4.97;;;;;;;18.24;100.00;101617.88;5052700;28;20115;-85
2023/08/17 07:03:00;;;;;;;16.88;5.43;;;;;;;18.30;100.00;101615.34;5065645;28;20502;-87
2023/08/17 07:05:26;;;;;;;17.20;4.90;;;;;;;18.31;100.00;101622.63;5089585;28;20040;-86
2023/08/17 07:07:52;;;;;;;13.65;5.10;;;;;;;18.26;100.00;101621.34;5084092;28;20108;-86
2023/08/17 07:10:18;;;;;;;10.65;4.65;;;;;;;18.42;100.00;101621.56;5070628;28;20525;-85
2023/08/17 07:12:44;;;;;;;15.77;4.88;;;;;;;18.39;100.00;101621.00;5090927;28;20034;-86
2023/08/17 07:15:11;;;;;;;12.77;5.60;;;;;;;18.41;100.00;101617.03;5090528;28;20035;-86
2023/08/17 07:17:37;;;;;;;11.75;4.53;;;;;;;18.46;100.00;101619.34;5071271;28;20031;-86
2023/08/17 07:20:03;;;;;;;7.85;4.35;;;;;;;18.53;100.00;101626.03;5089964;28;20059;-86
2023/08/17 07:22:29;;;;;;;9.27;3.92;;;;;;;18.54;100.00;101622.22;5073509;28;20028;-89
2023/08/17 07:24:55;;;;;;;13.48;4.60;;;;;;;18.49;100.00;101622.66;5090382;28;20078;-86
2023/08/17 07:27:20;;;;;;;10.75;4.65;;;;;;;18.35;100.00;101632.41;5075833;28;20044;-86
2023/08/17 07:29:46;;;;;;;14.65;4.15;;;;;;;18.44;100.00;101624.19;5073359;28;20058;-87
2023/08/17 07:32:11;;;;;;;18.52;4.65;;;;;;;18.55;100.00;101627.59;5071746;28;20032;-86
2023/08/17 07:34:37;;;;;;;13.13;5.60;;;;;;;18.55;100.00;101630.38;5059060;28;20020;-87
2023/08/17 07:37:06;;;;;;;13.25;4.15;;;;;;;18.48;100.00;101634.81;5054387;28;20481;-86
2023/08/17 07:39:31;;;;;;;8.93;3.85;;;;;;;18.63;100.00;101623.22;5085135;28;20068;-86
2023/08/17 07:41:58;;;;;;;16.55;4.05;;;;;;;18.54;100.00;101631.44;5073928;28;20056;-86
2023/08/17 07:44:24;;;;;;;9.00;4.03;;;;;;;18.49;100.00;101628.22;5057760;28;20029;-86
2023/08/17 07:46:50;;;;;;;8.90;3.92;;;;;;;18.53;100.00;101629.66;5084967;28;20394;-86
2023/08/17 07:49:16;;;;;;;11.63;4.10;;;;;;;18.32;100.00;101621.59;5068741;28;20074;-86
2023/08/17 07:51:41;;;;;;;11.10;3.80;;;;;;;18.29;100.00;101629.38;5084077;28;20028;-86
2023/08/17 07:54:07;;;;;;;11.18;4.65;;;;;;;18.23;100.00;101635.50;5087808;28;20036;-87
2023/08/17 07:56:33;;;;;;;14.55;4.40;;;;;;;18.25;100.00;101637.13;5076018;28;20036;-87
2023/08/17 07:58:58;;;;;;;16.08;4.97;;;;;;;18.19;100.00;101634.94;5081321;28;20047;-86
2023/08/17 08:01:25;;;;;;;12.27;4.82;;;;;;;18.04;100.00;101648.44;5083547;28;20395;-86
2023/08/17 08:03:50;;;;;;;8.57;4.35;;;;;;;18.11;100.00;101651.47;5068379;28;20071;-87
2023/08/17 08:06:17;;;;;;;13.30;4.00;;;;;;;18.08;100.00;101646.22;5072784;28;20162;-86
2023/08/17 08:08:42;;;;;;;17.85;5.22;;;;;;;18.08;100.00;101652.63;5072553;28;20413;-86
2023/08/17 08:11:10;;;;;;;14.27;4.85;;;;;;;18.12;100.00;101650.44;5069120;28;20039;-87
2023/08/17 08:13:35;;;;;;;15.23;4.97;;;;;;;18.29;100.00;101660.72;5083621;28;20055;-86
2023/08/17 08:16:00;;;;;;;16.83;4.80;;;;;;;18.22;100.00;101659.59;5056683;28;20402;-86
2023/08/17 08:18:26;;;;;;;14.55;5.22;;;;;;;18.18;100.00;101653.50;5073341;28;20039;-87
2023/08/17 08:20:51;;;;;;;13.48;5.03;;;;;;;18.26;100.00;101654.63;5086594;28;20130;-86
2023/08/17 08:23:17;;;;;;;20.30;5.72;;;;;;;18.14;100.00;101651.16;5068261;28;20508;-86
2023/08/17 08:25:42;;;;;;;17.25;5.07;;;;;;;18.15;100.00;101659.34;5089856;28;20040;-85
2023/08/17 08:28:08;;;;;;;12.90;5.03;;;;;;;18.19;100.00;101651.59;5055259;28;20390;-86
2023/08/17 08:30:34;;;;;;;16.17;4.75;;;;;;;18.18;100.00;101647.94;5085526;28;20532;-86
2023/08/17 08:32:59;;;;;;;17.92;5.30;;;;;;;18.26;100.00;101654.63;5068415;28;20048;-86
2023/08/17 08:35:27;;;;;;;19.50;5.20;;;;;;;18.28;100.00;101652.56;5074782;28;20055;-86
2023/08/17 08:37:53;;;;;;;17.63;5.20;;;;;;;18.26;100.00;101644.38;5085572;28;20039;-86
2023/08/17 08:40:29;;;;;;;11.90;5.18;;;;;;;18.28;100.00;101647.00;5065438;28;20367;-80
2023/08/17 08:42:55;;;;;;;26.13;5.30;;;;;;;18.41;100.00;101650.31;5081985;28;20050;-80
2023/08/17 08:45:22;;;;;;;18.92;4.75;;;;;;;18.43;100.00;101652.94;5068561;28;20032;-80
2023/08/17 08:47:50;;;;;;;14.52;5.45;;;;;;;18.48;100.00;101667.19;5063568;28;20031;-80
2023/08/17 08:50:25;;;;;;;14.52;5.60;;;;;;;18.40;100.00;101658.78;5072338;28;20024;-80
2023/08/17 08:53:05;;;;;;;13.50;5.50;;;;;;;18.23;100.00;101655.78;5086993;28;20028;-80
2023/08/17 08:55:37;;;;;;;23.95;6.45;;;;;;;18.24;100.00;101651.13;5087035;28;20027;-80
2023/08/17 08:58:07;;;;;;;17.25;6.18;;;;;;;18.44;100.00;101652.78;5081610;28;20028;-80
2023/08/17 09:00:33;;;;;;;18.55;5.43;;;;;;;18.76;100.00;101648.66;5079889;28;20055;-80
2023/08/17 09:02:59;;;;;;;16.55;6.32;;;;;;;18.66;100.00;101625.63;5083282;28;20062;-80
2023/08/17 09:05:27;;;;;;;22.83;6.22;;;;;;;18.86;100.00;101623.66;5072742;28;20032;-80
2023/08/17 09:07:53;;;;;;;22.23;6.60;;;;;;;18.97;100.00;101625.31;5081940;28;20058;-80
2023/08/17 09:10:18;;;;;;;14.20;6.05;;;;;;;19.09;100.00;101624.06;5067108;28;20032;-80
2023/08/17 09:12:47;;;;;;;19.92;6.90;;;;;;;18.97;100.00;101629.00;5082424;28;20087;-80
2023/08/17 09:15:12;;;;;;;20.33;6.47;;;;;;;18.86;100.00;101637.53;5087662;28;20065;-80
2023/08/17 09:17:38;;;;;;;16.40;6.63;;;;;;;18.87;100.00;101631.84;5064407;28;20037;-80
2023/08/17 09:20:04;;;;;;;19.63;5.72;;;;;;;19.07;100.00;101623.34;5086473;28;20077;-80
2023/08/17 09:22:42;;;;;;;20.00;6.30;;;;;;;18.94;100.00;101626.53;5076171;28;20396;-80
2023/08/17 09:25:10;;;;;;;17.77;6.95;;;;;;;18.97;100.00;101623.44;5065126;28;20054;-80
2023/08/17 09:27:38;;;;;;;20.00;5.97;;;;;;;18.79;100.00;101623.38;5074527;28;20055;-80
2023/08/17 09:30:06;;;;;;;22.13;7.32;;;;;;;18.88;100.00;101614.13;5076320;28;20108;-80
2023/08/17 09:32:32;;;;;;;19.50;6.75;;;;;;;18.94;100.00;101625.63;5080330;28;20119;-80
2023/08/17 09:35:01;;;;;;;14.02;7.18;;;;;;;18.88;100.00;101625.25;5086652;28;20043;-80
2023/08/17 09:37:27;;;;;;;25.15;7.88;;;;;;;18.90;100.00;101627.84;5081591;28;20470;-80
2023/08/17 09:39:54;;;;;;;15.75;6.72;;;;;;;18.94;100.00;101633.97;5083802;28;20120;-80
2023/08/17 09:42:22;;;;;;;18.42;6.65;;;;;;;19.00;100.00;101623.09;5088289;28;20470;-80
2023/08/17 09:44:50;;;;;;;18.73;6.65;;;;;;;18.89;100.00;101621.44;5077301;28;20028;-80
2023/08/17 09:47:18;;;;;;;30.77;8.43;;;;;;;18.92;100.00;101634.13;5091869;28;20524;-81
2023/08/17 09:49:53;;;;;;;27.98;9.05;;;;;;;19.08;100.00;101622.31;5085777;28;20035;-79
2023/08/17 09:52:23;;;;;;;22.27;8.57;;;;;;;19.07;100.00;101620.56;5084994;28;20036;-80
2023/08/17 09:54:49;;;;;;;23.33;8.07;;;;;;;19.02;100.00;101614.63;5073267;28;20518;-80
2023/08/17 09:57:16;;;;;;;22.20;8.25;;;;;;;19.03;100.00;101620.00;5084115;28;20111;-80
2023/08/17 09:59:41;;;;;;;28.02;9.13;;;;;;;19.03;100.00;101622.78;5086912;28;20039;-80
2023/08/17 10:02:23;;;;;;;33.03;10.32;;;;;;;18.85;100.00;101611.66;5083728;28;20032;-80
2023/08/17 10:04:53;;;;;;;29.60;9.38;;;;;;;19.22;100.00;101613.44;5086126;28;20482;-80
2023/08/17 10:07:20;;;;;;;32.53;9.50;;;;;;;19.31;100.00;101608.81;5097926;28;20039;-80
2023/08/17 10:09:54;;;;;;;27.02;9.43;;;;;;;19.38;100.00;101601.59;5083579;28;20111;-80
2023/08/17 10:12:24;;;;;;;22.23;9.68;;;;;;;19.37;100.00;101608.19;5077766;28;20024;-80
2023/08/17 10:15:02;;;;;;;22.33;8.80;;;;;;;19.50;100.00;101604.13;5084638;28;20026;-80
2023/08/17 10:17:34;;;;;;;27.85;10.63;;;;;;;20.31;100.00;101600.97;5086221;28;20032;-80
2023/08/17 10:20:00;;;;;;;28.27;9.32;;;;;;;20.75;100.00;101594.38;5085929;28;20051;-80
2023/08/17 10:22:36;;;;;;;28.33;9.98;;;;;;;20.85;100.00;101589.50;5071542;28;20031;-80
2023/08/17 10:25:03;;;;;;;29.55;10.60;;;;;;;20.72;100.00;101603.91;5086175;28;20428;-80
2023/08/17 10:27:29;;;;;;;24.30;9.63;;;;;;;20.74;100.00;101595.41;5088370;28;20081;-80
2023/08/17 10:29:55;;;;;;;23.15;8.43;;;;;;;20.84;100.00;101595.25;5086999;28;20024;-80
2023/08/17 10:32:24;;;;;;;23.85;8.95;;;;;;;20.95;100.00;101583.78;5081305;28;20032;-80
2023/08/17 10:34:52;;;;;;;19.52;9.13;;;;;;;20.77;100.00;101583.94;5085106;28;20036;-81
2023/08/17 10:37:19;;;;;;;25.55;9.63;;;;;;;20.44;100.00;101592.16;5090824;28;20050;-80
2023/08/17 10:39:46;;;;;;;24.80;9.02;;;;;;;20.45;100.00;101591.13;5078181;28;20058;-80
2023/08/17 10:42:12;;;;;;;23.30;9.63;;;;;;;20.24;100.00;101593.47;5080702;28;20039;-80
2023/08/17 10:44:46;;;;;;;31.58;9.80;;;;;;;20.12;100.00;101590.09;5091984;28;20085;-80
2023/08/17 10:47:22;;;;;;;26.90;11.05;;;;;;;20.22;100.00;101588.09;5083914;28;20119;-80
2023/08/17 10:49:49;;;;;;;26.92;9.95;;;;;;;20.35;100.00;101587.63;5084555;28;20020;-80
2023/08/17 10:52:28;;;;;;;24.42;9.32;;;;;;;20.32;100.00;101587.94;5090258;28;20717;-80
2023/08/17 10:54:54;;;;;;;24.27;10.55;;;;;;;20.41;100.00;101588.84;5080425;28;20102;-80
2023/08/17 10:57:39;;;;;;;27.30;10.35;;;;;;;20.66;100.00;101579.56;5075172;28;20031;-80
2023/08/17 11:00:16;;;;;;;28.30;10.05;;;;;;;20.48;100.00;101576.88;5064709;28;20393;-80
2023/08/17 11:02:56;;;;;;;25.30;9.70;;;;;;;20.73;100.00;101583.41;5087583;28;20035;-80
2023/08/17 11:05:34;;;;;;;23.65;9.88;;;;;;;20.59;100.00;101586.81;5066056;28;20123;-80
2023/08/17 11:07:59;;;;;;;22.27;10.02;;;;;;;20.80;100.00;101596.66;5088696;28;20062;-80
2023/08/17 11:10:24;;;;;;;22.80;9.20;;;;;;;20.77;100.00;101597.00;5061921;28;20511;-80
2023/08/17 11:12:56;;;;;;;23.95;9.88;;;;;;;20.50;100.00;101596.19;5085005;28;20213;-80